sensor_id;sensor_type;location;lat;lon;timestamp;P1;durP1;ratioP1;P2;durP2;ratioP2
4409;SDS011;2218;51.408;7.208;2023-07-28T00:02:09;0.60;;;0.40;;
4409;SDS011;2218;51.408;7.208;2023-07-28T00:04:36;0.60;;;0.40;;
4409;SDS011;2218;51.408;7.208;2023-07-28T00:07:04;0.97;;;0.50;;
4409;SDS011;2218;51.408;7.208;2023-07-28T00:09:31;0.70;;;0.40;;
4409;SDS011;2218;51.408;7.208;2023-07-28T00:11:58;0.60;;;0.40;;
4409;SDS011;2218;51.408;7.208;2023-07-28T00:14:27;0.70;;;0.50;;
4409;SDS011;2218;51.408;7.208;2023-07-28T00:16:56;1.00;;;0.50;;
4409;SDS011;2218;51.408;7.208;2023-07-28T00:19:23;0.83;;;0.43;;
4409;SDS011;2218;51.408;7.208;2023-07-28T00:21:51;0.83;;;0.53;;
4409;SDS011;2218;51.408;7.208;2023-07-28T00:24:18;0.60;;;0.40;;
4409;SDS011;2218;51.408;7.208;2023-07-28T00:26:45;0.60;;;0.40;;
4409;SDS011;2218;51.408;7.208;2023-07-28T00:29:12;0.70;;;0.50;;
4409;SDS011;2218;51.408;7.208;2023-07-28T00:31:38;0.70;;;0.50;;
4409;SDS011;2218;51.408;7.208;2023-07-28T00:34:08;0.60;;;0.40;;
4409;SDS011;2218;51.408;7.208;2023-07-28T00:36:35;0.63;;;0.40;;
4409;SDS011;2218;51.408;7.208;2023-07-28T00:39:02;0.90;;;0.50;;
4409;SDS011;2218;51.408;7.208;2023-07-28T00:41:29;0.90;;;0.60;;
4409;SDS011;2218;51.408;7.208;2023-07-28T00:43:56;0.70;;;0.40;;
4409;SDS011;2218;51.408;7.208;2023-07-28T00:46:23;0.60;;;0.40;;
4409;SDS011;2218;51.408;7.208;2023-07-28T00:48:50;0.70;;;0.40;;
4409;SDS011;2218;51.408;7.208;2023-07-28T00:51:20;0.70;;;0.40;;
4409;SDS011;2218;51.408;7.208;2023-07-28T00:53:47;0.60;;;0.40;;
4409;SDS011;2218;51.408;7.208;2023-07-28T00:56:15;0.70;;;0.40;;
4409;SDS011;2218;51.408;7.208;2023-07-28T00:58:42;0.70;;;0.40;;
4409;SDS011;2218;51.408;7.208;2023-07-28T01:01:09;0.70;;;0.40;;
4409;SDS011;2218;51.408;7.208;2023-07-28T01:03:36;0.70;;;0.50;;
4409;SDS011;2218;51.408;7.208;2023-07-28T01:06:07;0.70;;;0.40;;
4409;SDS011;2218;51.408;7.208;2023-07-28T01:08:48;0.60;;;0.40;;
4409;SDS011;2218;51.408;7.208;2023-07-28T01:11:22;0.70;;;0.43;;
4409;SDS011;2218;51.408;7.208;2023-07-28T01:13:48;0.70;;;0.50;;
4409;SDS011;2218;51.408;7.208;2023-07-28T01:16:15;0.70;;;0.40;;
4409;SDS011;2218;51.408;7.208;2023-07-28T01:18:42;0.67;;;0.40;;
4409;SDS011;2218;51.408;7.208;2023-07-28T01:21:12;0.70;;;0.50;;
4409;SDS011;2218;51.408;7.208;2023-07-28T01:23:50;0.80;;;0.50;;
4409;SDS011;2218;51.408;7.208;2023-07-28T01:26:30;0.70;;;0.50;;
4409;SDS011;2218;51.408;7.208;2023-07-28T01:29:00;0.67;;;0.43;;
4409;SDS011;2218;51.408;7.208;2023-07-28T01:31:30;0.60;;;0.40;;
4409;SDS011;2218;51.408;7.208;2023-07-28T01:33:57;0.70;;;0.50;;
4409;SDS011;2218;51.408;7.208;2023-07-28T01:36:24;0.70;;;0.50;;
4409;SDS011;2218;51.408;7.208;2023-07-28T01:38:51;1.20;;;0.50;;
4409;SDS011;2218;51.408;7.208;2023-07-28T01:41:19;0.87;;;0.60;;
4409;SDS011;2218;51.408;7.208;2023-07-28T01:43:47;0.67;;;0.50;;
4409;SDS011;2218;51.408;7.208;2023-07-28T01:46:14;0.70;;;0.40;;
4409;SDS011;2218;51.408;7.208;2023-07-28T01:48:41;0.70;;;0.50;;
4409;SDS011;2218;51.408;7.208;2023-07-28T01:51:08;0.70;;;0.47;;
4409;SDS011;2218;51.408;7.208;2023-07-28T01:53:35;0.70;;;0.50;;
4409;SDS011;2218;51.408;7.208;2023-07-28T01:56:02;0.70;;;0.40;;
4409;SDS011;2218;51.408;7.208;2023-07-28T01:58:29;0.70;;;0.40;;
4409;SDS011;2218;51.408;7.208;2023-07-28T02:00:57;0.70;;;0.50;;
4409;SDS011;2218;51.408;7.208;2023-07-28T02:03:24;1.00;;;0.60;;
4409;SDS011;2218;51.408;7.208;2023-07-28T02:05:51;0.60;;;0.40;;
4409;SDS011;2218;51.408;7.208;2023-07-28T02:08:18;0.70;;;0.40;;
4409;SDS011;2218;51.408;7.208;2023-07-28T02:10:45;0.70;;;0.50;;
4409;SDS011;2218;51.408;7.208;2023-07-28T02:13:12;0.70;;;0.43;;
4409;SDS011;2218;51.408;7.208;2023-07-28T02:15:39;1.33;;;0.60;;
4409;SDS011;2218;51.408;7.208;2023-07-28T02:18:07;0.70;;;0.50;;
4409;SDS011;2218;51.408;7.208;2023-07-28T02:20:34;0.60;;;0.40;;
4409;SDS011;2218;51.408;7.208;2023-07-28T02:23:02;0.60;;;0.40;;
4409;SDS011;2218;51.408;7.208;2023-07-28T02:25:29;0.70;;;0.40;;
4409;SDS011;2218;51.408;7.208;2023-07-28T02:27:56;0.70;;;0.50;;
4409;SDS011;2218;51.408;7.208;2023-07-28T02:30:24;0.70;;;0.60;;
4409;SDS011;2218;51.408;7.208;2023-07-28T02:32:51;0.70;;;0.40;;
4409;SDS011;2218;51.408;7.208;2023-07-28T02:35:19;0.97;;;0.50;;
4409;SDS011;2218;51.408;7.208;2023-07-28T02:37:46;0.70;;;0.40;;
4409;SDS011;2218;51.408;7.208;2023-07-28T02:40:13;0.60;;;0.40;;
4409;SDS011;2218;51.408;7.208;2023-07-28T02:42:40;0.60;;;0.40;;
4409;SDS011;2218;51.408;7.208;2023-07-28T02:45:07;0.70;;;0.50;;
4409;SDS011;2218;51.408;7.208;2023-07-28T02:47:35;0.80;;;0.50;;
4409;SDS011;2218;51.408;7.208;2023-07-28T02:50:04;0.60;;;0.40;;
4409;SDS011;2218;51.408;7.208;2023-07-28T02:52:33;0.60;;;0.40;;
4409;SDS011;2218;51.408;7.208;2023-07-28T02:55:00;0.70;;;0.40;;
4409;SDS011;2218;51.408;7.208;2023-07-28T02:57:27;0.70;;;0.50;;
4409;SDS011;2218;51.408;7.208;2023-07-28T02:59:54;0.70;;;0.40;;
4409;SDS011;2218;51.408;7.208;2023-07-28T03:02:21;0.60;;;0.40;;
4409;SDS011;2218;51.408;7.208;2023-07-28T03:04:51;0.70;;;0.50;;
4409;SDS011;2218;51.408;7.208;2023-07-28T03:07:21;0.60;;;0.40;;
4409;SDS011;2218;51.408;7.208;2023-07-28T03:09:56;0.60;;;0.40;;
4409;SDS011;2218;51.408;7.208;2023-07-28T03:12:23;0.60;;;0.40;;
4409;SDS011;2218;51.408;7.208;2023-07-28T03:14:50;0.70;;;0.40;;
4409;SDS011;2218;51.408;7.208;2023-07-28T03:17:17;0.70;;;0.50;;
4409;SDS011;2218;51.408;7.208;2023-07-28T03:19:44;0.70;;;0.47;;
4409;SDS011;2218;51.408;7.208;2023-07-28T03:22:11;0.60;;;0.40;;
4409;SDS011;2218;51.408;7.208;2023-07-28T03:24:38;0.60;;;0.50;;
4409;SDS011;2218;51.408;7.208;2023-07-28T03:27:06;0.70;;;0.40;;
4409;SDS011;2218;51.408;7.208;2023-07-28T03:29:33;0.70;;;0.50;;
4409;SDS011;2218;51.408;7.208;2023-07-28T03:32:01;0.63;;;0.40;;
4409;SDS011;2218;51.408;7.208;2023-07-28T03:34:28;0.67;;;0.47;;
4409;SDS011;2218;51.408;7.208;2023-07-28T03:36:57;0.70;;;0.50;;
4409;SDS011;2218;51.408;7.208;2023-07-28T03:39:24;1.10;;;0.47;;
4409;SDS011;2218;51.408;7.208;2023-07-28T03:41:51;0.60;;;0.40;;
4409;SDS011;2218;51.408;7.208;2023-07-28T03:44:19;0.80;;;0.43;;
4409;SDS011;2218;51.408;7.208;2023-07-28T03:46:46;0.60;;;0.40;;
4409;SDS011;2218;51.408;7.208;2023-07-28T03:49:13;0.60;;;0.40;;
4409;SDS011;2218;51.408;7.208;2023-07-28T03:51:40;0.60;;;0.40;;
4409;SDS011;2218;51.408;7.208;2023-07-28T03:54:07;0.60;;;0.40;;
4409;SDS011;2218;51.408;7.208;2023-07-28T03:56:34;0.60;;;0.40;;
4409;SDS011;2218;51.408;7.208;2023-07-28T03:59:01;0.60;;;0.47;;
4409;SDS011;2218;51.408;7.208;2023-07-28T04:01:30;0.63;;;0.43;;
4409;SDS011;2218;51.408;7.208;2023-07-28T04:03:56;0.60;;;0.50;;
4409;SDS011;2218;51.408;7.208;2023-07-28T04:06:39;0.70;;;0.50;;
4409;SDS011;2218;51.408;7.208;2023-07-28T04:09:08;0.60;;;0.40;;
4409;SDS011;2218;51.408;7.208;2023-07-28T04:11:35;0.60;;;0.40;;
4409;SDS011;2218;51.408;7.208;2023-07-28T04:14:02;0.70;;;0.50;;
4409;SDS011;2218;51.408;7.208;2023-07-28T04:16:30;0.70;;;0.53;;
4409;SDS011;2218;51.408;7.208;2023-07-28T04:18:57;0.70;;;0.40;;
4409;SDS011;2218;51.408;7.208;2023-07-28T04:21:24;0.60;;;0.40;;
4409;SDS011;2218;51.408;7.208;2023-07-28T04:23:52;0.70;;;0.50;;
4409;SDS011;2218;51.408;7.208;2023-07-28T04:26:19;0.60;;;0.40;;
4409;SDS011;2218;51.408;7.208;2023-07-28T04:28:51;0.60;;;0.40;;
4409;SDS011;2218;51.408;7.208;2023-07-28T04:31:18;0.70;;;0.50;;
4409;SDS011;2218;51.408;7.208;2023-07-28T04:33:54;0.70;;;0.40;;
4409;SDS011;2218;51.408;7.208;2023-07-28T04:36:23;0.80;;;0.40;;
4409;SDS011;2218;51.408;7.208;2023-07-28T04:38:50;0.70;;;0.40;;
4409;SDS011;2218;51.408;7.208;2023-07-28T04:41:17;0.70;;;0.50;;
4409;SDS011;2218;51.408;7.208;2023-07-28T04:43:49;0.70;;;0.40;;
4409;SDS011;2218;51.408;7.208;2023-07-28T04:46:16;0.60;;;0.40;;
4409;SDS011;2218;51.408;7.208;2023-07-28T04:48:48;0.70;;;0.50;;
4409;SDS011;2218;51.408;7.208;2023-07-28T04:51:37;0.60;;;0.40;;
4409;SDS011;2218;51.408;7.208;2023-07-28T04:54:35;0.70;;;0.40;;
4409;SDS011;2218;51.408;7.208;2023-07-28T04:57:02;0.63;;;0.40;;
4409;SDS011;2218;51.408;7.208;2023-07-28T04:59:32;0.70;;;0.40;;
4409;SDS011;2218;51.408;7.208;2023-07-28T05:02:00;0.60;;;0.40;;
4409;SDS011;2218;51.408;7.208;2023-07-28T05:04:27;0.70;;;0.40;;
4409;SDS011;2218;51.408;7.208;2023-07-28T05:06:55;0.70;;;0.50;;
4409;SDS011;2218;51.408;7.208;2023-07-28T05:09:22;0.70;;;0.47;;
4409;SDS011;2218;51.408;7.208;2023-07-28T05:11:49;0.80;;;0.50;;
4409;SDS011;2218;51.408;7.208;2023-07-28T05:14:16;0.60;;;0.40;;
4409;SDS011;2218;51.408;7.208;2023-07-28T05:16:43;0.60;;;0.40;;
4409;SDS011;2218;51.408;7.208;2023-07-28T05:19:23;0.70;;;0.50;;
4409;SDS011;2218;51.408;7.208;2023-07-28T05:22:10;0.60;;;0.40;;
4409;SDS011;2218;51.408;7.208;2023-07-28T05:24:47;0.70;;;0.50;;
4409;SDS011;2218;51.408;7.208;2023-07-28T05:27:15;0.93;;;0.40;;
4409;SDS011;2218;51.408;7.208;2023-07-28T05:29:45;0.60;;;0.40;;
4409;SDS011;2218;51.408;7.208;2023-07-28T05:32:12;0.70;;;0.50;;
4409;SDS011;2218;51.408;7.208;2023-07-28T05:35:08;0.60;;;0.40;;
4409;SDS011;2218;51.408;7.208;2023-07-28T05:37:36;0.70;;;0.50;;
4409;SDS011;2218;51.408;7.208;2023-07-28T05:40:03;0.70;;;0.50;;
4409;SDS011;2218;51.408;7.208;2023-07-28T05:42:33;0.70;;;0.50;;
4409;SDS011;2218;51.408;7.208;2023-07-28T05:45:00;0.60;;;0.40;;
4409;SDS011;2218;51.408;7.208;2023-07-28T05:47:28;0.70;;;0.40;;
4409;SDS011;2218;51.408;7.208;2023-07-28T05:49:55;0.70;;;0.50;;
4409;SDS011;2218;51.408;7.208;2023-07-28T05:52:22;0.70;;;0.47;;
4409;SDS011;2218;51.408;7.208;2023-07-28T05:54:51;0.60;;;0.40;;
4409;SDS011;2218;51.408;7.208;2023-07-28T05:57:17;0.70;;;0.50;;
4409;SDS011;2218;51.408;7.208;2023-07-28T05:59:44;0.60;;;0.40;;
4409;SDS011;2218;51.408;7.208;2023-07-28T06:02:12;0.70;;;0.40;;
4409;SDS011;2218;51.408;7.208;2023-07-28T06:04:54;0.70;;;0.47;;
4409;SDS011;2218;51.408;7.208;2023-07-28T06:07:21;0.60;;;0.50;;
4409;SDS011;2218;51.408;7.208;2023-07-28T06:09:48;0.70;;;0.43;;
4409;SDS011;2218;51.408;7.208;2023-07-28T06:12:16;0.70;;;0.50;;
4409;SDS011;2218;51.408;7.208;2023-07-28T06:14:43;0.80;;;0.50;;
4409;SDS011;2218;51.408;7.208;2023-07-28T06:17:11;0.60;;;0.40;;
4409;SDS011;2218;51.408;7.208;2023-07-28T06:19:38;0.60;;;0.40;;
4409;SDS011;2218;51.408;7.208;2023-07-28T06:22:05;0.60;;;0.40;;
4409;SDS011;2218;51.408;7.208;2023-07-28T06:24:37;0.70;;;0.43;;
4409;SDS011;2218;51.408;7.208;2023-07-28T06:27:04;0.60;;;0.40;;
4409;SDS011;2218;51.408;7.208;2023-07-28T06:29:37;0.70;;;0.40;;
4409;SDS011;2218;51.408;7.208;2023-07-28T06:32:04;0.70;;;0.40;;
4409;SDS011;2218;51.408;7.208;2023-07-28T06:34:33;0.70;;;0.50;;
4409;SDS011;2218;51.408;7.208;2023-07-28T06:36:59;0.60;;;0.40;;
4409;SDS011;2218;51.408;7.208;2023-07-28T06:39:27;0.70;;;0.40;;
4409;SDS011;2218;51.408;7.208;2023-07-28T06:41:55;0.67;;;0.50;;
4409;SDS011;2218;51.408;7.208;2023-07-28T06:44:23;0.70;;;0.40;;
4409;SDS011;2218;51.408;7.208;2023-07-28T06:46:52;0.70;;;0.50;;
4409;SDS011;2218;51.408;7.208;2023-07-28T06:49:19;0.70;;;0.47;;
4409;SDS011;2218;51.408;7.208;2023-07-28T06:51:46;0.70;;;0.50;;
4409;SDS011;2218;51.408;7.208;2023-07-28T06:54:13;0.70;;;0.50;;
4409;SDS011;2218;51.408;7.208;2023-07-28T06:56:40;0.70;;;0.50;;
4409;SDS011;2218;51.408;7.208;2023-07-28T06:59:07;0.80;;;0.50;;
4409;SDS011;2218;51.408;7.208;2023-07-28T07:01:34;0.60;;;0.40;;
4409;SDS011;2218;51.408;7.208;2023-07-28T07:04:02;0.70;;;0.40;;
4409;SDS011;2218;51.408;7.208;2023-07-28T07:06:29;0.70;;;0.50;;
4409;SDS011;2218;51.408;7.208;2023-07-28T07:08:57;0.60;;;0.40;;
4409;SDS011;2218;51.408;7.208;2023-07-28T07:11:24;0.60;;;0.40;;
4409;SDS011;2218;51.408;7.208;2023-07-28T07:13:51;0.80;;;0.50;;
4409;SDS011;2218;51.408;7.208;2023-07-28T07:16:17;0.70;;;0.50;;
4409;SDS011;2218;51.408;7.208;2023-07-28T07:18:44;0.60;;;0.40;;
4409;SDS011;2218;51.408;7.208;2023-07-28T07:21:13;0.60;;;0.40;;
4409;SDS011;2218;51.408;7.208;2023-07-28T07:23:40;0.70;;;0.50;;
4409;SDS011;2218;51.408;7.208;2023-07-28T07:26:24;0.70;;;0.40;;
4409;SDS011;2218;51.408;7.208;2023-07-28T07:28:50;0.70;;;0.43;;
4409;SDS011;2218;51.408;7.208;2023-07-28T07:31:18;0.60;;;0.40;;
4409;SDS011;2218;51.408;7.208;2023-07-28T07:33:45;0.93;;;0.50;;
4409;SDS011;2218;51.408;7.208;2023-07-28T07:36:13;2.60;;;0.50;;
4409;SDS011;2218;51.408;7.208;2023-07-28T07:38:41;1.10;;;0.50;;
4409;SDS011;2218;51.408;7.208;2023-07-28T07:41:11;2.20;;;0.50;;
4409;SDS011;2218;51.408;7.208;2023-07-28T07:43:38;0.80;;;0.53;;
4409;SDS011;2218;51.408;7.208;2023-07-28T07:46:05;1.03;;;0.60;;
4409;SDS011;2218;51.408;7.208;2023-07-28T07:48:32;0.70;;;0.50;;
4409;SDS011;2218;51.408;7.208;2023-07-28T07:50:59;0.70;;;0.50;;
4409;SDS011;2218;51.408;7.208;2023-07-28T07:53:27;0.70;;;0.40;;
4409;SDS011;2218;51.408;7.208;2023-07-28T07:55:54;0.73;;;0.50;;
4409;SDS011;2218;51.408;7.208;2023-07-28T07:58:22;1.93;;;0.50;;
4409;SDS011;2218;51.408;7.208;2023-07-28T08:00:48;0.70;;;0.50;;
4409;SDS011;2218;51.408;7.208;2023-07-28T08:03:15;0.90;;;0.60;;
4409;SDS011;2218;51.408;7.208;2023-07-28T08:05:42;0.70;;;0.47;;
4409;SDS011;2218;51.408;7.208;2023-07-28T08:08:09;0.70;;;0.50;;
4409;SDS011;2218;51.408;7.208;2023-07-28T08:10:38;0.70;;;0.53;;
4409;SDS011;2218;51.408;7.208;2023-07-28T08:13:05;0.70;;;0.50;;
4409;SDS011;2218;51.408;7.208;2023-07-28T08:15:32;1.07;;;0.60;;
4409;SDS011;2218;51.408;7.208;2023-07-28T08:17:59;0.90;;;0.70;;
4409;SDS011;2218;51.408;7.208;2023-07-28T08:20:26;1.43;;;0.70;;
4409;SDS011;2218;51.408;7.208;2023-07-28T08:22:53;0.97;;;0.70;;
4409;SDS011;2218;51.408;7.208;2023-07-28T08:25:20;0.80;;;0.73;;
4409;SDS011;2218;51.408;7.208;2023-07-28T08:27:49;0.80;;;0.70;;
4409;SDS011;2218;51.408;7.208;2023-07-28T08:30:16;2.20;;;0.70;;
4409;SDS011;2218;51.408;7.208;2023-07-28T08:32:43;0.80;;;0.70;;
4409;SDS011;2218;51.408;7.208;2023-07-28T08:35:10;0.80;;;0.77;;
4409;SDS011;2218;51.408;7.208;2023-07-28T08:37:37;0.70;;;0.70;;
4409;SDS011;2218;51.408;7.208;2023-07-28T08:40:04;0.80;;;0.80;;
4409;SDS011;2218;51.408;7.208;2023-07-28T08:42:35;1.00;;;0.90;;
4409;SDS011;2218;51.408;7.208;2023-07-28T08:45:06;0.80;;;0.80;;
4409;SDS011;2218;51.408;7.208;2023-07-28T08:47:35;0.90;;;0.90;;
4409;SDS011;2218;51.408;7.208;2023-07-28T08:50:03;0.73;;;0.70;;
4409;SDS011;2218;51.408;7.208;2023-07-28T08:52:32;0.73;;;0.73;;
4409;SDS011;2218;51.408;7.208;2023-07-28T08:54:59;0.80;;;0.80;;
4409;SDS011;2218;51.408;7.208;2023-07-28T08:57:26;1.10;;;1.00;;
4409;SDS011;2218;51.408;7.208;2023-07-28T08:59:54;1.03;;;0.93;;
4409;SDS011;2218;51.408;7.208;2023-07-28T09:02:22;1.13;;;0.90;;
4409;SDS011;2218;51.408;7.208;2023-07-28T09:04:49;1.00;;;0.90;;
4409;SDS011;2218;51.408;7.208;2023-07-28T09:07:16;0.93;;;0.70;;
4409;SDS011;2218;51.408;7.208;2023-07-28T09:09:43;0.90;;;0.90;;
4409;SDS011;2218;51.408;7.208;2023-07-28T09:12:11;1.33;;;0.93;;
4409;SDS011;2218;51.408;7.208;2023-07-28T09:14:38;0.80;;;0.80;;
4409;SDS011;2218;51.408;7.208;2023-07-28T09:17:06;0.80;;;0.70;;
4409;SDS011;2218;51.408;7.208;2023-07-28T09:19:35;0.90;;;0.70;;
4409;SDS011;2218;51.408;7.208;2023-07-28T09:22:17;0.80;;;0.70;;
4409;SDS011;2218;51.408;7.208;2023-07-28T09:24:45;0.70;;;0.67;;
4409;SDS011;2218;51.408;7.208;2023-07-28T09:27:19;0.97;;;0.87;;
4409;SDS011;2218;51.408;7.208;2023-07-28T09:29:48;1.07;;;0.97;;
4409;SDS011;2218;51.408;7.208;2023-07-28T09:32:16;0.80;;;0.80;;
4409;SDS011;2218;51.408;7.208;2023-07-28T09:35:06;0.97;;;0.93;;
4409;SDS011;2218;51.408;7.208;2023-07-28T09:37:36;1.10;;;0.83;;
4409;SDS011;2218;51.408;7.208;2023-07-28T09:40:08;1.03;;;0.80;;
4409;SDS011;2218;51.408;7.208;2023-07-28T09:42:37;0.80;;;0.80;;
4409;SDS011;2218;51.408;7.208;2023-07-28T09:45:05;0.73;;;0.60;;
4409;SDS011;2218;51.408;7.208;2023-07-28T09:47:34;1.07;;;0.97;;
4409;SDS011;2218;51.408;7.208;2023-07-28T09:50:04;0.80;;;0.80;;
4409;SDS011;2218;51.408;7.208;2023-07-28T09:52:37;0.90;;;0.90;;
4409;SDS011;2218;51.408;7.208;2023-07-28T09:55:09;0.80;;;0.70;;
4409;SDS011;2218;51.408;7.208;2023-07-28T09:57:39;0.70;;;0.60;;
4409;SDS011;2218;51.408;7.208;2023-07-28T10:00:13;0.80;;;0.70;;
4409;SDS011;2218;51.408;7.208;2023-07-28T10:02:42;0.80;;;0.70;;
4409;SDS011;2218;51.408;7.208;2023-07-28T10:05:11;0.80;;;0.70;;
4409;SDS011;2218;51.408;7.208;2023-07-28T10:07:40;0.80;;;0.70;;
4409;SDS011;2218;51.408;7.208;2023-07-28T10:10:10;0.80;;;0.80;;
4409;SDS011;2218;51.408;7.208;2023-07-28T10:12:40;3.00;;;0.70;;
4409;SDS011;2218;51.408;7.208;2023-07-28T10:15:11;0.83;;;0.80;;
4409;SDS011;2218;51.408;7.208;2023-07-28T10:17:43;0.70;;;0.67;;
4409;SDS011;2218;51.408;7.208;2023-07-28T10:20:27;0.80;;;0.70;;
4409;SDS011;2218;51.408;7.208;2023-07-28T10:23:03;0.70;;;0.70;;
4409;SDS011;2218;51.408;7.208;2023-07-28T10:25:33;1.00;;;0.90;;
4409;SDS011;2218;51.408;7.208;2023-07-28T10:28:03;0.90;;;0.70;;
4409;SDS011;2218;51.408;7.208;2023-07-28T10:30:36;0.80;;;0.80;;
4409;SDS011;2218;51.408;7.208;2023-07-28T10:33:05;0.70;;;0.60;;
4409;SDS011;2218;51.408;7.208;2023-07-28T10:35:33;0.73;;;0.60;;
4409;SDS011;2218;51.408;7.208;2023-07-28T10:41:04;0.90;;;0.80;;
4409;SDS011;2218;51.408;7.208;2023-07-28T10:43:38;0.80;;;0.80;;
4409;SDS011;2218;51.408;7.208;2023-07-28T10:46:05;0.80;;;0.70;;
4409;SDS011;2218;51.408;7.208;2023-07-28T10:48:36;0.80;;;0.60;;
4409;SDS011;2218;51.408;7.208;2023-07-28T10:51:08;0.80;;;0.60;;
4409;SDS011;2218;51.408;7.208;2023-07-28T10:53:36;0.70;;;0.57;;
4409;SDS011;2218;51.408;7.208;2023-07-28T10:56:04;0.73;;;0.60;;
4409;SDS011;2218;51.408;7.208;2023-07-28T10:58:34;0.70;;;0.60;;
4409;SDS011;2218;51.408;7.208;2023-07-28T11:01:01;0.70;;;0.70;;
4409;SDS011;2218;51.408;7.208;2023-07-28T11:03:29;1.27;;;0.80;;
4409;SDS011;2218;51.408;7.208;2023-07-28T11:05:55;0.70;;;0.70;;
4409;SDS011;2218;51.408;7.208;2023-07-28T11:08:24;1.40;;;0.83;;
4409;SDS011;2218;51.408;7.208;2023-07-28T11:10:52;0.80;;;0.70;;
4409;SDS011;2218;51.408;7.208;2023-07-28T11:13:19;0.70;;;0.60;;
4409;SDS011;2218;51.408;7.208;2023-07-28T11:15:49;0.80;;;0.70;;
4409;SDS011;2218;51.408;7.208;2023-07-28T11:18:16;0.80;;;0.77;;
4409;SDS011;2218;51.408;7.208;2023-07-28T11:20:43;0.80;;;0.80;;
4409;SDS011;2218;51.408;7.208;2023-07-28T11:23:13;0.90;;;0.63;;
4409;SDS011;2218;51.408;7.208;2023-07-28T11:25:44;0.70;;;0.70;;
4409;SDS011;2218;51.408;7.208;2023-07-28T11:28:13;0.80;;;0.63;;
4409;SDS011;2218;51.408;7.208;2023-07-28T11:30:40;0.70;;;0.60;;
4409;SDS011;2218;51.408;7.208;2023-07-28T11:33:10;1.53;;;0.70;;
4409;SDS011;2218;51.408;7.208;2023-07-28T11:35:38;0.80;;;0.70;;
4409;SDS011;2218;51.408;7.208;2023-07-28T11:38:05;0.70;;;0.60;;
4409;SDS011;2218;51.408;7.208;2023-07-28T11:40:34;0.80;;;0.80;;
4409;SDS011;2218;51.408;7.208;2023-07-28T11:43:03;0.80;;;0.70;;
4409;SDS011;2218;51.408;7.208;2023-07-28T11:45:31;1.10;;;0.70;;
4409;SDS011;2218;51.408;7.208;2023-07-28T11:47:58;0.70;;;0.60;;
4409;SDS011;2218;51.408;7.208;2023-07-28T11:50:28;1.00;;;0.67;;
4409;SDS011;2218;51.408;7.208;2023-07-28T11:53:01;0.70;;;0.50;;
4409;SDS011;2218;51.408;7.208;2023-07-28T11:55:28;1.83;;;0.73;;
4409;SDS011;2218;51.408;7.208;2023-07-28T11:57:55;0.80;;;0.70;;
4409;SDS011;2218;51.408;7.208;2023-07-28T12:00:28;0.70;;;0.60;;
4409;SDS011;2218;51.408;7.208;2023-07-28T12:03:00;0.73;;;0.73;;
4409;SDS011;2218;51.408;7.208;2023-07-28T12:05:34;0.80;;;0.80;;
4409;SDS011;2218;51.408;7.208;2023-07-28T12:08:02;0.80;;;0.80;;
4409;SDS011;2218;51.408;7.208;2023-07-28T12:10:30;1.63;;;0.70;;
4409;SDS011;2218;51.408;7.208;2023-07-28T12:12:57;0.80;;;0.70;;
4409;SDS011;2218;51.408;7.208;2023-07-28T12:15:32;0.70;;;0.60;;
4409;SDS011;2218;51.408;7.208;2023-07-28T12:18:01;0.80;;;0.70;;
4409;SDS011;2218;51.408;7.208;2023-07-28T12:20:33;0.80;;;0.80;;
4409;SDS011;2218;51.408;7.208;2023-07-28T12:23:02;0.80;;;0.70;;
4409;SDS011;2218;51.408;7.208;2023-07-28T12:25:30;0.70;;;0.70;;
4409;SDS011;2218;51.408;7.208;2023-07-28T12:27:58;0.80;;;0.60;;
4409;SDS011;2218;51.408;7.208;2023-07-28T12:30:26;0.70;;;0.60;;
4409;SDS011;2218;51.408;7.208;2023-07-28T12:32:54;0.70;;;0.63;;
4409;SDS011;2218;51.408;7.208;2023-07-28T12:35:21;0.80;;;0.80;;
4409;SDS011;2218;51.408;7.208;2023-07-28T12:37:49;0.80;;;0.67;;
4409;SDS011;2218;51.408;7.208;2023-07-28T12:40:17;1.00;;;0.80;;
4409;SDS011;2218;51.408;7.208;2023-07-28T12:42:45;0.80;;;0.70;;
4409;SDS011;2218;51.408;7.208;2023-07-28T12:45:12;0.70;;;0.60;;
4409;SDS011;2218;51.408;7.208;2023-07-28T12:47:40;0.80;;;0.60;;
4409;SDS011;2218;51.408;7.208;2023-07-28T12:50:10;0.70;;;0.60;;
4409;SDS011;2218;51.408;7.208;2023-07-28T12:52:37;0.70;;;0.60;;
4409;SDS011;2218;51.408;7.208;2023-07-28T12:55:04;0.80;;;0.60;;
4409;SDS011;2218;51.408;7.208;2023-07-28T12:57:32;1.10;;;0.70;;
4409;SDS011;2218;51.408;7.208;2023-07-28T12:59:59;0.70;;;0.60;;
4409;SDS011;2218;51.408;7.208;2023-07-28T13:02:26;0.80;;;0.60;;
4409;SDS011;2218;51.408;7.208;2023-07-28T13:04:52;0.87;;;0.87;;
4409;SDS011;2218;51.408;7.208;2023-07-28T13:07:21;0.70;;;0.60;;
4409;SDS011;2218;51.408;7.208;2023-07-28T13:09:48;0.80;;;0.70;;
4409;SDS011;2218;51.408;7.208;2023-07-28T13:12:15;0.70;;;0.63;;
4409;SDS011;2218;51.408;7.208;2023-07-28T13:14:42;0.97;;;0.60;;
4409;SDS011;2218;51.408;7.208;2023-07-28T13:17:09;0.70;;;0.63;;
4409;SDS011;2218;51.408;7.208;2023-07-28T13:19:36;0.70;;;0.57;;
4409;SDS011;2218;51.408;7.208;2023-07-28T13:22:04;0.77;;;0.63;;
4409;SDS011;2218;51.408;7.208;2023-07-28T13:24:33;0.80;;;0.80;;
4409;SDS011;2218;51.408;7.208;2023-07-28T13:26:59;0.83;;;0.77;;
4409;SDS011;2218;51.408;7.208;2023-07-28T13:29:26;0.80;;;0.73;;
4409;SDS011;2218;51.408;7.208;2023-07-28T13:31:56;0.70;;;0.60;;
4409;SDS011;2218;51.408;7.208;2023-07-28T13:34:24;0.70;;;0.60;;
4409;SDS011;2218;51.408;7.208;2023-07-28T13:36:52;0.70;;;0.70;;
4409;SDS011;2218;51.408;7.208;2023-07-28T13:39:19;1.57;;;0.63;;
4409;SDS011;2218;51.408;7.208;2023-07-28T13:41:47;0.80;;;0.70;;
4409;SDS011;2218;51.408;7.208;2023-07-28T13:44:14;0.80;;;0.60;;
4409;SDS011;2218;51.408;7.208;2023-07-28T13:46:41;0.80;;;0.60;;
4409;SDS011;2218;51.408;7.208;2023-07-28T13:49:08;0.70;;;0.53;;
4409;SDS011;2218;51.408;7.208;2023-07-28T13:51:35;0.70;;;0.60;;
4409;SDS011;2218;51.408;7.208;2023-07-28T13:54:02;0.80;;;0.80;;
4409;SDS011;2218;51.408;7.208;2023-07-28T13:56:29;0.70;;;0.50;;
4409;SDS011;2218;51.408;7.208;2023-07-28T13:58:58;0.70;;;0.50;;
4409;SDS011;2218;51.408;7.208;2023-07-28T14:01:25;0.70;;;0.60;;
4409;SDS011;2218;51.408;7.208;2023-07-28T14:03:52;0.80;;;0.70;;
4409;SDS011;2218;51.408;7.208;2023-07-28T14:06:19;1.20;;;0.60;;
4409;SDS011;2218;51.408;7.208;2023-07-28T14:08:46;0.67;;;0.50;;
4409;SDS011;2218;51.408;7.208;2023-07-28T14:11:12;0.70;;;0.60;;
4409;SDS011;2218;51.408;7.208;2023-07-28T14:13:40;0.70;;;0.60;;
4409;SDS011;2218;51.408;7.208;2023-07-28T14:16:08;0.77;;;0.60;;
4409;SDS011;2218;51.408;7.208;2023-07-28T14:18:36;0.80;;;0.60;;
4409;SDS011;2218;51.408;7.208;2023-07-28T14:21:03;0.70;;;0.63;;
4409;SDS011;2218;51.408;7.208;2023-07-28T14:23:30;0.80;;;0.70;;
4409;SDS011;2218;51.408;7.208;2023-07-28T14:25:57;0.80;;;0.60;;
4409;SDS011;2218;51.408;7.208;2023-07-28T14:28:24;0.80;;;0.60;;
4409;SDS011;2218;51.408;7.208;2023-07-28T14:30:51;0.80;;;0.70;;
4409;SDS011;2218;51.408;7.208;2023-07-28T14:33:19;0.70;;;0.60;;
4409;SDS011;2218;51.408;7.208;2023-07-28T14:35:47;0.70;;;0.57;;
4409;SDS011;2218;51.408;7.208;2023-07-28T14:38:15;0.70;;;0.60;;
4409;SDS011;2218;51.408;7.208;2023-07-28T14:40:42;0.80;;;0.50;;
4409;SDS011;2218;51.408;7.208;2023-07-28T14:43:13;0.70;;;0.50;;
4409;SDS011;2218;51.408;7.208;2023-07-28T14:45:40;0.80;;;0.70;;
4409;SDS011;2218;51.408;7.208;2023-07-28T14:48:08;0.90;;;0.60;;
4409;SDS011;2218;51.408;7.208;2023-07-28T14:50:36;1.00;;;0.63;;
4409;SDS011;2218;51.408;7.208;2023-07-28T14:53:10;0.70;;;0.57;;
4409;SDS011;2218;51.408;7.208;2023-07-28T14:56:00;0.70;;;0.60;;
4409;SDS011;2218;51.408;7.208;2023-07-28T14:58:30;0.70;;;0.57;;
4409;SDS011;2218;51.408;7.208;2023-07-28T15:00:58;0.70;;;0.60;;
4409;SDS011;2218;51.408;7.208;2023-07-28T15:03:27;0.80;;;0.63;;
4409;SDS011;2218;51.408;7.208;2023-07-28T15:05:58;0.70;;;0.60;;
4409;SDS011;2218;51.408;7.208;2023-07-28T15:08:25;0.70;;;0.60;;
4409;SDS011;2218;51.408;7.208;2023-07-28T15:10:52;0.70;;;0.70;;
4409;SDS011;2218;51.408;7.208;2023-07-28T15:13:20;0.70;;;0.60;;
4409;SDS011;2218;51.408;7.208;2023-07-28T15:15:47;0.70;;;0.57;;
4409;SDS011;2218;51.408;7.208;2023-07-28T15:18:14;0.93;;;0.60;;
4409;SDS011;2218;51.408;7.208;2023-07-28T15:20:42;0.73;;;0.57;;
4409;SDS011;2218;51.408;7.208;2023-07-28T15:23:10;1.20;;;0.70;;
4409;SDS011;2218;51.408;7.208;2023-07-28T15:25:37;0.70;;;0.50;;
4409;SDS011;2218;51.408;7.208;2023-07-28T15:28:07;0.70;;;0.60;;